createdAt,value
2023-05-10T00:01:18.659Z,12.15
2023-05-10T00:03:45.392Z,12.17
2023-05-10T00:06:12.106Z,12.10
2023-05-10T00:08:38.924Z,12.06
2023-05-10T00:11:05.591Z,12.01
2023-05-10T00:13:32.642Z,11.98
2023-05-10T00:15:59.305Z,11.94
2023-05-10T00:18:26.009Z,11.94
2023-05-10T00:20:52.663Z,11.94
2023-05-10T00:23:19.260Z,11.91
2023-05-10T00:25:45.919Z,11.86
2023-05-10T00:28:12.516Z,11.85
2023-05-10T00:30:39.164Z,11.92
2023-05-10T00:33:05.880Z,11.85
2023-05-10T00:35:32.522Z,11.78
2023-05-10T00:37:59.234Z,11.73
2023-05-10T00:40:26.016Z,11.66
2023-05-10T00:42:57.710Z,11.64
2023-05-10T00:45:24.627Z,11.63
2023-05-10T00:47:55.904Z,11.58
2023-05-10T00:50:25.806Z,11.65
2023-05-10T00:52:53.207Z,11.62
2023-05-10T00:55:19.926Z,11.55
2023-05-10T00:57:46.706Z,11.50
2023-05-10T01:00:14.114Z,11.50
2023-05-10T01:02:41.746Z,11.41
2023-05-10T01:05:08.599Z,11.38
2023-05-10T01:07:35.227Z,11.35
2023-05-10T01:10:01.923Z,11.37
2023-05-10T01:12:28.997Z,11.30
2023-05-10T01:14:56.067Z,11.22
2023-05-10T01:17:23.896Z,11.23
2023-05-10T01:19:50.717Z,11.17
2023-05-10T01:22:38.758Z,11.13
2023-05-10T01:25:45.115Z,11.14
2023-05-10T01:28:20.818Z,11.07
2023-05-10T01:31:15.563Z,11.03
2023-05-10T01:33:56.830Z,10.96
2023-05-10T01:36:49.289Z,10.97
2023-05-10T01:39:24.931Z,11.00
2023-05-10T01:42:11.983Z,10.92
2023-05-10T01:45:01.146Z,10.80
2023-05-10T01:47:27.730Z,10.78
2023-05-10T01:49:56.608Z,10.83
2023-05-10T01:52:41.991Z,10.82
2023-05-10T01:55:12.425Z,10.73
2023-05-10T01:57:41.684Z,10.72
2023-05-10T02:00:10.755Z,10.75
2023-05-10T02:02:46.811Z,10.75
2023-05-10T02:05:16.538Z,10.76
2023-05-10T02:07:44.527Z,10.71
2023-05-10T02:10:13.810Z,10.68
2023-05-10T02:12:44.245Z,10.62
2023-05-10T02:15:13.683Z,10.56
2023-05-10T02:17:42.601Z,10.48
2023-05-10T02:20:11.307Z,10.55
2023-05-10T02:22:39.921Z,10.60
2023-05-10T02:25:10.046Z,10.57
2023-05-10T02:27:38.115Z,10.52
2023-05-10T02:30:06.874Z,10.57
2023-05-10T02:32:34.560Z,10.54
2023-05-10T02:35:03.875Z,10.47
2023-05-10T02:37:30.859Z,10.42
2023-05-10T02:39:58.160Z,10.55
2023-05-10T02:42:27.827Z,10.56
2023-05-10T02:45:00.284Z,10.55
2023-05-10T02:47:27.402Z,10.47
2023-05-10T02:49:54.889Z,10.40
2023-05-10T02:52:28.492Z,10.40
2023-05-10T02:55:03.850Z,10.33
2023-05-10T02:57:37.526Z,10.32
2023-05-10T03:00:04.957Z,10.27
2023-05-10T03:02:31.960Z,10.30
2023-05-10T03:04:59.293Z,10.24
2023-05-10T03:07:26.526Z,10.27
2023-05-10T03:09:53.338Z,10.34
2023-05-10T03:12:34.744Z,10.37
2023-05-10T03:15:13.441Z,10.31
2023-05-10T03:18:05.884Z,10.23
2023-05-10T03:20:37.786Z,10.24
2023-05-10T03:23:16.736Z,10.25
2023-05-10T03:25:44.865Z,10.21
2023-05-10T03:28:13.243Z,10.26
2023-05-10T03:30:41.512Z,10.25
2023-05-10T03:33:11.745Z,10.22
2023-05-10T03:35:41.704Z,10.26
2023-05-10T03:38:08.480Z,10.30
2023-05-10T03:40:35.176Z,10.26
2023-05-10T03:43:02.161Z,10.26
2023-05-10T03:45:29.210Z,10.21
2023-05-10T03:47:56.304Z,10.16
2023-05-10T03:50:23.145Z,10.24
2023-05-10T03:52:49.895Z,10.25
2023-05-10T03:55:17.256Z,10.30
2023-05-10T03:57:44.553Z,10.24
2023-05-10T04:00:12.290Z,10.31
2023-05-10T04:02:41.877Z,10.32
2023-05-10T04:05:12.161Z,10.33
2023-05-10T04:07:38.860Z,10.33
2023-05-10T04:10:05.992Z,10.41
2023-05-10T04:12:32.587Z,10.37
2023-05-10T04:14:59.202Z,10.35
2023-05-10T04:17:25.870Z,10.41
2023-05-10T04:19:55.454Z,10.43
2023-05-10T04:22:22.055Z,10.44
2023-05-10T04:24:48.719Z,10.47
2023-05-10T04:27:15.278Z,10.49
2023-05-10T04:29:42.573Z,10.51
2023-05-10T04:32:09.248Z,10.58
2023-05-10T04:34:35.836Z,10.60
2023-05-10T04:37:02.488Z,10.64
2023-05-10T04:39:29.020Z,10.67
2023-05-10T04:41:55.658Z,10.69
2023-05-10T04:44:22.359Z,10.72
2023-05-10T04:46:48.980Z,10.78
2023-05-10T04:49:15.530Z,10.86
2023-05-10T04:51:42.140Z,10.87
2023-05-10T04:54:09.025Z,10.89
2023-05-10T04:56:35.644Z,10.94
2023-05-10T04:59:02.379Z,10.98
2023-05-10T05:01:29.043Z,11.06
2023-05-10T05:03:55.822Z,11.12
2023-05-10T05:06:22.647Z,11.14
2023-05-10T05:08:51.408Z,11.20
2023-05-10T05:11:19.117Z,11.19
2023-05-10T05:13:45.844Z,11.25
2023-05-10T05:16:12.576Z,11.30
2023-05-10T05:18:39.773Z,11.37
2023-05-10T05:21:18.500Z,11.45
2023-05-10T05:23:46.874Z,11.57
2023-05-10T05:26:13.531Z,11.59
2023-05-10T05:28:40.145Z,11.66
2023-05-10T05:31:08.780Z,11.66
2023-05-10T05:33:35.826Z,11.76
2023-05-10T05:36:03.922Z,11.84
2023-05-10T05:38:30.532Z,11.93
2023-05-10T05:40:57.525Z,11.94
2023-05-10T05:43:24.152Z,12.06
2023-05-10T05:45:50.974Z,12.14
2023-05-10T05:48:17.599Z,12.21
2023-05-10T05:50:44.230Z,12.24
2023-05-10T05:53:10.895Z,12.30
2023-05-10T05:55:38.093Z,12.33
2023-05-10T05:58:04.742Z,12.43
2023-05-10T06:00:31.405Z,12.50
2023-05-10T06:02:58.110Z,12.53
2023-05-10T06:05:24.781Z,12.54
2023-05-10T06:07:51.407Z,12.61
2023-05-10T06:10:18.080Z,12.67
2023-05-10T06:12:45.118Z,12.76
2023-05-10T06:15:11.927Z,12.81
2023-05-10T06:17:39.802Z,12.85
2023-05-10T06:20:07.481Z,12.96
2023-05-10T06:22:34.145Z,13.00
2023-05-10T06:25:00.820Z,13.09
2023-05-10T06:27:28.071Z,13.08
2023-05-10T06:30:02.210Z,13.15
2023-05-10T06:32:32.427Z,13.28
2023-05-10T06:35:01.606Z,13.41
2023-05-10T06:37:28.359Z,13.39
2023-05-10T06:39:55.014Z,13.40
2023-05-10T06:42:21.613Z,13.41
2023-05-10T06:44:48.304Z,13.48
2023-05-10T06:47:14.907Z,13.50
2023-05-10T06:49:41.613Z,13.54
2023-05-10T06:52:08.722Z,13.54
2023-05-10T06:54:35.434Z,13.51
2023-05-10T06:57:05.810Z,13.60
2023-05-10T06:59:37.446Z,13.67
2023-05-10T07:02:04.383Z,13.77
2023-05-10T07:04:31.076Z,13.91
2023-05-10T07:06:58.727Z,13.87
2023-05-10T07:09:26.081Z,13.95
2023-05-10T07:11:52.698Z,13.95
2023-05-10T07:14:19.350Z,14.02
2023-05-10T07:16:46.139Z,14.03
2023-05-10T07:19:12.797Z,14.09
2023-05-10T07:21:41.378Z,14.13
2023-05-10T07:24:08.003Z,14.27
2023-05-10T07:26:34.685Z,14.32
2023-05-10T07:29:01.313Z,14.42
2023-05-10T07:31:28.070Z,14.39
2023-05-10T07:33:54.816Z,14.39
2023-05-10T07:36:23.146Z,14.44
2023-05-10T07:38:50.508Z,14.61
2023-05-10T07:41:17.196Z,14.66
2023-05-10T07:43:43.798Z,14.86
2023-05-10T07:46:11.300Z,15.01
2023-05-10T07:48:38.243Z,15.03
2023-05-10T07:51:04.948Z,14.99
2023-05-10T07:53:32.602Z,15.00
2023-05-10T07:55:59.455Z,15.04
2023-05-10T07:58:26.256Z,15.02
2023-05-10T08:00:53.448Z,15.07
2023-05-10T08:03:20.719Z,15.22
2023-05-10T08:05:47.388Z,15.31
2023-05-10T08:08:15.088Z,15.38
2023-05-10T08:10:41.758Z,15.57
2023-05-10T08:13:08.343Z,15.64
2023-05-10T08:15:35.060Z,15.72
2023-05-10T08:18:01.697Z,15.53
2023-05-10T08:20:28.346Z,15.64
2023-05-10T08:22:54.927Z,15.71
2023-05-10T08:25:21.627Z,15.93
2023-05-10T08:27:48.357Z,15.91
2023-05-10T08:30:15.028Z,16.08
2023-05-10T08:32:41.668Z,16.20
2023-05-10T08:35:08.609Z,16.44
2023-05-10T08:37:35.314Z,16.74
2023-05-10T08:40:02.083Z,16.91
2023-05-10T08:42:36.008Z,17.04
2023-05-10T08:45:04.258Z,17.11
2023-05-10T08:47:31.441Z,17.24
2023-05-10T08:49:59.091Z,17.36
2023-05-10T08:52:27.475Z,17.45
2023-05-10T08:54:54.501Z,17.49
2023-05-10T08:57:21.727Z,17.58
2023-05-10T08:59:48.615Z,18.03
2023-05-10T09:02:17.288Z,18.38
2023-05-10T09:04:45.574Z,18.57
2023-05-10T09:07:12.418Z,18.80
2023-05-10T09:09:39.558Z,19.09
2023-05-10T09:12:07.433Z,19.51
2023-05-10T09:14:36.646Z,19.86
2023-05-10T09:17:03.588Z,19.64
2023-05-10T09:19:30.331Z,19.93
2023-05-10T09:21:57.167Z,20.15
2023-05-10T09:24:28.058Z,20.65
2023-05-10T09:26:55.609Z,21.47
2023-05-10T09:29:22.431Z,22.89
2023-05-10T09:31:55.558Z,24.43
2023-05-10T09:34:31.979Z,25.02
2023-05-10T09:37:01.924Z,25.37
2023-05-10T09:39:36.766Z,25.68
2023-05-10T09:42:06.014Z,26.23
2023-05-10T09:44:33.997Z,26.57
2023-05-10T09:47:04.268Z,26.66
2023-05-10T09:49:31.157Z,27.08
2023-05-10T09:52:09.053Z,26.77
2023-05-10T09:54:36.998Z,27.58
2023-05-10T09:57:04.139Z,27.82
2023-05-10T09:59:31.315Z,27.78
2023-05-10T10:02:01.764Z,28.77
2023-05-10T10:04:29.063Z,27.61
2023-05-10T10:07:05.918Z,27.66
2023-05-10T10:09:34.552Z,28.08
2023-05-10T10:12:04.843Z,26.96
2023-05-10T10:14:32.079Z,27.13
2023-05-10T10:19:34.358Z,27.52
2023-05-10T10:22:01.449Z,27.61
2023-05-10T10:24:28.142Z,28.77
2023-05-10T10:26:58.278Z,29.05
2023-05-10T10:29:37.959Z,29.12
2023-05-10T10:32:39.005Z,29.05
2023-05-10T10:35:06.195Z,28.13
2023-05-10T10:37:48.012Z,28.98
2023-05-10T10:40:44.224Z,29.35
2023-05-10T10:43:28.095Z,29.40
2023-05-10T10:46:14.661Z,29.16
2023-05-10T10:48:43.028Z,28.94
2023-05-10T10:51:12.194Z,28.60
2023-05-10T10:53:40.854Z,28.85
2023-05-10T10:56:10.579Z,28.16
2023-05-10T10:58:39.431Z,27.67
2023-05-10T11:01:17.478Z,27.24
2023-05-10T11:04:19.690Z,27.01
2023-05-10T11:06:46.332Z,27.71
2023-05-10T11:09:14.016Z,27.78
2023-05-10T11:11:53.247Z,27.63
2023-05-10T11:14:23.697Z,26.91
2023-05-10T11:16:50.692Z,27.19
2023-05-10T11:19:18.980Z,27.30
2023-05-10T11:21:47.712Z,27.19
2023-05-10T11:24:16.429Z,27.59
2023-05-10T11:26:43.274Z,27.62
2023-05-10T11:29:10.209Z,27.90
2023-05-10T11:31:44.823Z,28.02
2023-05-10T11:34:12.164Z,28.24
2023-05-10T11:36:38.982Z,28.06
2023-05-10T11:39:06.899Z,27.62
2023-05-10T11:41:33.805Z,28.10
2023-05-10T11:44:00.707Z,28.13
2023-05-10T11:46:29.238Z,28.20
2023-05-10T11:49:01.666Z,28.14
2023-05-10T11:51:28.866Z,27.98
2023-05-10T11:53:56.641Z,27.97
2023-05-10T11:56:24.479Z,28.29
2023-05-10T11:58:58.687Z,28.40
2023-05-10T12:01:27.835Z,28.34
2023-05-10T12:03:59.579Z,28.83
2023-05-10T12:06:36.536Z,28.93
2023-05-10T12:09:08.099Z,29.12
2023-05-10T12:11:40.516Z,28.45
2023-05-10T12:14:09.473Z,27.95
2023-05-10T12:16:36.923Z,27.90
2023-05-10T12:19:04.272Z,27.69
2023-05-10T12:21:34.365Z,27.92
2023-05-10T12:24:02.727Z,28.65
2023-05-10T12:26:30.632Z,28.73
2023-05-10T12:29:13.785Z,28.22
2023-05-10T12:31:57.404Z,28.50
2023-05-10T12:34:27.873Z,29.06
2023-05-10T12:36:55.539Z,28.80
2023-05-10T12:39:22.267Z,28.65
2023-05-10T12:41:50.372Z,28.54
2023-05-10T12:44:17.096Z,28.71
2023-05-10T12:46:43.770Z,28.90
2023-05-10T12:49:11.387Z,28.16
2023-05-10T12:51:38.057Z,27.90
2023-05-10T12:54:04.817Z,27.10
2023-05-10T12:56:31.557Z,27.63
2023-05-10T12:58:58.156Z,27.93
2023-05-10T13:01:24.900Z,28.01
2023-05-10T13:03:51.630Z,27.39
2023-05-10T13:06:18.307Z,27.21
2023-05-10T13:08:44.926Z,26.81
2023-05-10T13:11:11.812Z,25.82
2023-05-10T13:13:38.427Z,25.66
2023-05-10T13:16:05.433Z,25.95
2023-05-10T13:18:32.273Z,25.92
2023-05-10T13:20:59.685Z,25.95
2023-05-10T13:23:26.280Z,26.11
2023-05-10T13:25:53.035Z,26.32
2023-05-10T13:28:19.627Z,26.52
2023-05-10T13:30:46.245Z,26.45
2023-05-10T13:33:13.194Z,26.87
2023-05-10T13:35:39.806Z,26.58
2023-05-10T13:38:09.058Z,26.77
2023-05-10T13:40:37.008Z,26.64
2023-05-10T13:43:03.686Z,26.33
2023-05-10T13:45:30.301Z,26.04
2023-05-10T13:47:56.980Z,25.96
2023-05-10T13:50:24.119Z,25.46
2023-05-10T13:52:50.809Z,25.36
2023-05-10T13:55:17.624Z,25.36
2023-05-10T13:57:44.529Z,25.37
2023-05-10T14:00:11.716Z,25.09
2023-05-10T14:02:38.355Z,24.89
2023-05-10T14:05:05.454Z,24.75
2023-05-10T14:07:32.143Z,24.80
2023-05-10T14:09:58.750Z,24.18
2023-05-10T14:12:25.381Z,23.97
2023-05-10T14:14:53.129Z,23.76
2023-05-10T14:17:20.342Z,23.46
2023-05-10T14:19:47.389Z,23.44
2023-05-10T14:22:14.065Z,23.34
2023-05-10T14:24:40.682Z,23.39
2023-05-10T14:27:07.976Z,23.19
2023-05-10T14:29:34.729Z,22.91
2023-05-10T14:32:01.338Z,22.97
2023-05-10T14:34:27.929Z,22.51
2023-05-10T14:36:54.539Z,22.54
2023-05-10T14:39:21.067Z,22.33
2023-05-10T14:41:48.325Z,21.91
2023-05-10T14:44:16.707Z,21.72
2023-05-10T14:46:43.724Z,21.88
2023-05-10T14:49:10.456Z,21.56
2023-05-10T14:51:37.884Z,21.32
2023-05-10T14:54:04.698Z,21.23
2023-05-10T14:56:31.321Z,21.19
2023-05-10T14:58:58.079Z,21.07
2023-05-10T15:01:25.431Z,21.13
2023-05-10T15:03:52.810Z,21.05
2023-05-10T15:06:25.960Z,20.75
2023-05-10T15:08:52.657Z,20.70
2023-05-10T15:11:19.601Z,20.63
2023-05-10T15:13:46.708Z,20.58
2023-05-10T15:16:13.367Z,20.58
2023-05-10T15:18:40.108Z,20.49
2023-05-10T15:21:06.750Z,20.34
2023-05-10T15:23:33.768Z,20.32
2023-05-10T15:26:01.758Z,20.18
2023-05-10T15:28:28.346Z,20.11
2023-05-10T15:30:55.321Z,20.10
2023-05-10T15:33:22.034Z,20.13
2023-05-10T15:35:48.693Z,20.17
2023-05-10T15:38:15.882Z,20.15
2023-05-10T15:40:42.440Z,20.14
2023-05-10T15:43:09.114Z,20.06
2023-05-10T15:45:37.556Z,19.99
2023-05-10T15:48:04.680Z,19.98
2023-05-10T15:50:31.338Z,20.02
2023-05-10T15:52:57.914Z,20.05
2023-05-10T15:55:25.911Z,19.98
2023-05-10T15:57:52.529Z,19.94
2023-05-10T16:00:19.536Z,19.95
2023-05-10T16:02:46.256Z,19.93
2023-05-10T16:05:13.989Z,19.85
2023-05-10T16:07:42.079Z,19.77
2023-05-10T16:10:10.628Z,19.53
2023-05-10T16:12:37.250Z,19.43
2023-05-10T16:15:04.264Z,19.47
2023-05-10T16:17:30.945Z,19.46
2023-05-10T16:19:57.698Z,19.32
2023-05-10T16:22:27.279Z,19.23
2023-05-10T16:24:53.942Z,19.17
2023-05-10T16:27:20.682Z,19.13
2023-05-10T16:29:47.901Z,19.11
2023-05-10T16:32:14.609Z,19.09
2023-05-10T16:34:41.339Z,19.06
2023-05-10T16:37:07.966Z,18.97
2023-05-10T16:39:34.661Z,18.80
2023-05-10T16:42:01.304Z,18.70
2023-05-10T16:44:28.237Z,18.66
2023-05-10T16:46:55.124Z,18.70
2023-05-10T16:49:23.767Z,18.72
2023-05-10T16:51:52.701Z,18.64
2023-05-10T16:54:21.208Z,18.61
2023-05-10T16:56:48.098Z,18.59
2023-05-10T16:59:14.708Z,18.54
2023-05-10T17:01:41.550Z,18.57
2023-05-10T17:04:08.426Z,18.45
2023-05-10T17:06:36.702Z,18.30
2023-05-10T17:09:04.066Z,18.13
2023-05-10T17:11:30.896Z,18.14
2023-05-10T17:13:59.085Z,18.10
2023-05-10T17:16:25.898Z,18.00
2023-05-10T17:18:52.716Z,17.93
2023-05-10T17:21:19.516Z,17.88
2023-05-10T17:23:46.142Z,17.84
2023-05-10T17:26:12.852Z,17.82
2023-05-10T17:28:39.452Z,17.77
2023-05-10T17:31:06.280Z,17.67
2023-05-10T17:33:32.914Z,17.64
2023-05-10T17:35:59.468Z,17.63
2023-05-10T17:38:26.258Z,17.60
2023-05-10T17:40:52.832Z,17.64
2023-05-10T17:43:20.115Z,17.69
2023-05-10T17:45:49.326Z,17.62
2023-05-10T17:48:16.017Z,17.59
2023-05-10T17:50:43.448Z,17.58
2023-05-10T17:53:10.542Z,17.61
2023-05-10T17:55:41.128Z,17.60
2023-05-10T17:58:08.057Z,17.50
2023-05-10T18:00:34.678Z,17.40
2023-05-10T18:03:03.513Z,17.33
2023-05-10T18:05:30.506Z,17.30
2023-05-10T18:07:57.372Z,17.29
2023-05-10T18:10:24.575Z,17.20
2023-05-10T18:12:52.339Z,17.08
2023-05-10T18:15:19.131Z,17.07
2023-05-10T18:17:45.882Z,17.01
2023-05-10T18:20:13.012Z,16.90
2023-05-10T18:22:40.235Z,16.79
2023-05-10T18:25:07.688Z,16.71
2023-05-10T18:27:34.337Z,16.69
2023-05-10T18:30:01.038Z,16.69
2023-05-10T18:32:27.967Z,16.68
2023-05-10T18:34:55.798Z,16.58
2023-05-10T18:37:22.796Z,16.56
2023-05-10T18:39:49.921Z,16.53
2023-05-10T18:42:16.538Z,16.52
2023-05-10T18:44:43.207Z,16.45
2023-05-10T18:47:09.845Z,16.42
2023-05-10T18:49:36.492Z,16.40
2023-05-10T18:52:03.149Z,16.32
2023-05-10T18:54:30.134Z,16.31
2023-05-10T18:56:58.533Z,16.24
2023-05-10T18:59:25.636Z,16.07
2023-05-10T19:01:53.615Z,15.85
2023-05-10T19:04:21.740Z,15.73
2023-05-10T19:06:48.413Z,15.67
2023-05-10T19:09:15.013Z,15.63
2023-05-10T19:11:43.241Z,15.58
2023-05-10T19:14:10.295Z,15.50
2023-05-10T19:16:37.144Z,15.46
2023-05-10T19:19:04.110Z,15.47
2023-05-10T19:21:31.315Z,15.48
2023-05-10T19:23:58.156Z,15.39
2023-05-10T19:26:24.747Z,15.40
2023-05-10T19:28:52.400Z,15.35
2023-05-10T19:31:19.585Z,15.40
2023-05-10T19:33:46.885Z,15.46
2023-05-10T19:36:13.702Z,15.53
2023-05-10T19:38:40.306Z,15.56
2023-05-10T19:41:06.897Z,15.54
2023-05-10T19:43:34.621Z,15.55
2023-05-10T19:46:02.303Z,15.52
2023-05-10T19:48:29.198Z,15.53
2023-05-10T19:51:07.820Z,15.43
2023-05-10T19:53:36.670Z,15.39
2023-05-10T19:56:07.113Z,15.26
2023-05-10T19:58:33.905Z,15.16
2023-05-10T20:01:00.699Z,15.11
2023-05-10T20:03:28.504Z,14.98
2023-05-10T20:05:55.327Z,14.83
2023-05-10T20:08:22.189Z,14.75
2023-05-10T20:10:48.851Z,14.72
2023-05-10T20:13:16.786Z,14.72
2023-05-10T20:15:43.450Z,14.79
2023-05-10T20:18:10.738Z,14.80
2023-05-10T20:20:39.155Z,14.62
2023-05-10T20:23:05.746Z,14.35
2023-05-10T20:25:32.428Z,14.20
2023-05-10T20:27:59.071Z,14.14
2023-05-10T20:30:25.697Z,14.09
2023-05-10T20:32:52.455Z,14.03
2023-05-10T20:35:19.206Z,14.05
2023-05-10T20:37:48.242Z,14.07
2023-05-10T20:40:14.951Z,14.04
2023-05-10T20:42:41.857Z,14.16
2023-05-10T20:45:09.092Z,14.05
2023-05-10T20:47:36.835Z,13.93
2023-05-10T20:50:04.713Z,13.98
2023-05-10T20:52:31.319Z,14.13
2023-05-10T20:54:57.959Z,14.21
2023-05-10T20:57:24.558Z,14.07
2023-05-10T20:59:51.205Z,13.93
2023-05-10T21:02:17.847Z,13.93
2023-05-10T21:04:44.526Z,13.94
2023-05-10T21:07:11.233Z,13.94
2023-05-10T21:09:38.238Z,13.88
2023-05-10T21:12:05.146Z,13.77
2023-05-10T21:14:31.732Z,13.73
2023-05-10T21:16:58.353Z,13.62
2023-05-10T21:19:24.957Z,13.46
2023-05-10T21:21:51.590Z,13.35
2023-05-10T21:24:18.472Z,13.33
2023-05-10T21:26:45.535Z,13.35
2023-05-10T21:29:12.176Z,13.22
2023-05-10T21:31:38.791Z,13.11
2023-05-10T21:34:05.448Z,13.14
2023-05-10T21:36:32.105Z,13.07
2023-05-10T21:38:58.852Z,12.99
2023-05-10T21:41:25.515Z,12.95
2023-05-10T21:43:52.151Z,12.91
2023-05-10T21:46:18.803Z,12.86
2023-05-10T21:48:45.580Z,12.88
2023-05-10T21:51:12.493Z,12.91
2023-05-10T21:53:39.105Z,12.84
2023-05-10T21:56:07.221Z,12.72
2023-05-10T21:58:34.002Z,12.65
2023-05-10T22:01:00.738Z,12.61
2023-05-10T22:03:27.524Z,12.68
2023-05-10T22:05:54.242Z,12.71
2023-05-10T22:08:20.908Z,12.70
2023-05-10T22:10:47.538Z,12.68
2023-05-10T22:13:14.161Z,12.68
2023-05-10T22:15:40.765Z,12.59
2023-05-10T22:18:07.407Z,12.53
2023-05-10T22:20:34.105Z,12.52
2023-05-10T22:23:01.037Z,12.45
2023-05-10T22:25:28.139Z,12.45
2023-05-10T22:27:54.768Z,12.37
2023-05-10T22:30:21.569Z,12.31
2023-05-10T22:32:48.759Z,12.26
2023-05-10T22:35:15.510Z,12.21
2023-05-10T22:37:42.103Z,12.15
2023-05-10T22:40:09.473Z,12.14
2023-05-10T22:42:36.091Z,12.07
2023-05-10T22:45:02.680Z,12.05
2023-05-10T22:47:29.244Z,12.04
2023-05-10T22:49:57.456Z,12.02
2023-05-10T22:52:24.168Z,11.99
2023-05-10T22:54:50.882Z,11.99
2023-05-10T22:57:17.778Z,11.95
2023-05-10T22:59:44.383Z,11.98
2023-05-10T23:02:11.425Z,11.91
2023-05-10T23:04:38.146Z,11.82
2023-05-10T23:07:05.145Z,11.77
2023-05-10T23:09:31.716Z,11.73
2023-05-10T23:11:58.261Z,11.74
2023-05-10T23:14:24.942Z,11.68
2023-05-10T23:16:51.540Z,11.68
2023-05-10T23:19:18.073Z,11.71
2023-05-10T23:21:44.669Z,11.71
2023-05-10T23:24:11.647Z,11.71
2023-05-10T23:26:38.320Z,11.66
2023-05-10T23:29:04.929Z,11.65
2023-05-10T23:31:31.674Z,11.63
2023-05-10T23:33:58.292Z,11.60
2023-05-10T23:36:24.899Z,11.50
2023-05-10T23:38:51.482Z,11.39
2023-05-10T23:41:18.238Z,11.31
2023-05-10T23:43:44.858Z,11.22
2023-05-10T23:46:11.515Z,11.15
2023-05-10T23:48:38.277Z,11.11
2023-05-10T23:51:04.993Z,11.08
2023-05-10T23:53:31.585Z,11.00
2023-05-10T23:55:58.132Z,10.94
2023-05-10T23:58:24.716Z,10.92
